sensor_id;sensor_type;location;lat;lon;timestamp;P1;durP1;ratioP1;P2;durP2;ratioP2
14381;SDS011;7275;50.328;8.720;2023-03-01T00:01:09;8.67;;;5.70;;
14381;SDS011;7275;50.328;8.720;2023-03-01T00:03:40;8.23;;;5.70;;
14381;SDS011;7275;50.328;8.720;2023-03-01T00:06:08;7.20;;;5.83;;
14381;SDS011;7275;50.328;8.720;2023-03-01T00:08:36;7.10;;;5.40;;
14381;SDS011;7275;50.328;8.720;2023-03-01T00:11:04;7.03;;;5.97;;
14381;SDS011;7275;50.328;8.720;2023-03-01T00:13:33;7.63;;;5.77;;
14381;SDS011;7275;50.328;8.720;2023-03-01T00:16:02;6.97;;;5.80;;
14381;SDS011;7275;50.328;8.720;2023-03-01T00:18:30;7.80;;;5.83;;
14381;SDS011;7275;50.328;8.720;2023-03-01T00:20:59;8.03;;;5.83;;
14381;SDS011;7275;50.328;8.720;2023-03-01T00:23:27;7.70;;;5.90;;
14381;SDS011;7275;50.328;8.720;2023-03-01T00:25:55;7.37;;;5.70;;
14381;SDS011;7275;50.328;8.720;2023-03-01T00:28:22;7.80;;;5.27;;
14381;SDS011;7275;50.328;8.720;2023-03-01T00:30:50;6.37;;;5.37;;
14381;SDS011;7275;50.328;8.720;2023-03-01T00:33:18;9.17;;;5.80;;
14381;SDS011;7275;50.328;8.720;2023-03-01T00:35:45;8.23;;;6.27;;
14381;SDS011;7275;50.328;8.720;2023-03-01T00:38:14;6.40;;;5.33;;
14381;SDS011;7275;50.328;8.720;2023-03-01T00:40:42;8.20;;;6.10;;
14381;SDS011;7275;50.328;8.720;2023-03-01T00:43:10;7.50;;;5.90;;
14381;SDS011;7275;50.328;8.720;2023-03-01T00:45:37;7.83;;;5.40;;
14381;SDS011;7275;50.328;8.720;2023-03-01T00:48:05;7.93;;;5.67;;
14381;SDS011;7275;50.328;8.720;2023-03-01T00:50:33;7.67;;;5.77;;
14381;SDS011;7275;50.328;8.720;2023-03-01T00:53:00;7.83;;;6.57;;
14381;SDS011;7275;50.328;8.720;2023-03-01T00:55:29;8.63;;;6.03;;
14381;SDS011;7275;50.328;8.720;2023-03-01T00:57:57;8.73;;;5.90;;
14381;SDS011;7275;50.328;8.720;2023-03-01T01:00:24;7.30;;;5.83;;
14381;SDS011;7275;50.328;8.720;2023-03-01T01:02:53;8.40;;;6.03;;
14381;SDS011;7275;50.328;8.720;2023-03-01T01:05:21;9.07;;;6.23;;
14381;SDS011;7275;50.328;8.720;2023-03-01T01:07:48;8.67;;;6.53;;
14381;SDS011;7275;50.328;8.720;2023-03-01T01:10:16;7.43;;;6.37;;
14381;SDS011;7275;50.328;8.720;2023-03-01T01:13:12;7.40;;;5.90;;
14381;SDS011;7275;50.328;8.720;2023-03-01T01:15:40;7.17;;;5.20;;
14381;SDS011;7275;50.328;8.720;2023-03-01T01:18:07;9.33;;;6.87;;
14381;SDS011;7275;50.328;8.720;2023-03-01T01:20:35;8.57;;;6.67;;
14381;SDS011;7275;50.328;8.720;2023-03-01T01:23:05;8.73;;;6.30;;
14381;SDS011;7275;50.328;8.720;2023-03-01T01:25:34;7.97;;;6.03;;
14381;SDS011;7275;50.328;8.720;2023-03-01T01:28:03;8.53;;;6.50;;
14381;SDS011;7275;50.328;8.720;2023-03-01T01:30:32;8.20;;;5.93;;
14381;SDS011;7275;50.328;8.720;2023-03-01T01:32:59;7.87;;;6.07;;
14381;SDS011;7275;50.328;8.720;2023-03-01T01:35:27;7.83;;;6.13;;
14381;SDS011;7275;50.328;8.720;2023-03-01T01:37:55;8.90;;;6.30;;
14381;SDS011;7275;50.328;8.720;2023-03-01T01:40:22;7.67;;;6.37;;
14381;SDS011;7275;50.328;8.720;2023-03-01T01:42:50;8.43;;;6.30;;
14381;SDS011;7275;50.328;8.720;2023-03-01T01:45:28;8.60;;;6.80;;
14381;SDS011;7275;50.328;8.720;2023-03-01T01:48:00;8.73;;;6.33;;
14381;SDS011;7275;50.328;8.720;2023-03-01T01:50:31;7.60;;;6.60;;
14381;SDS011;7275;50.328;8.720;2023-03-01T01:53:05;11.07;;;6.83;;
14381;SDS011;7275;50.328;8.720;2023-03-01T01:55:36;9.13;;;7.00;;
14381;SDS011;7275;50.328;8.720;2023-03-01T01:58:07;8.73;;;6.50;;
14381;SDS011;7275;50.328;8.720;2023-03-01T02:00:38;8.50;;;6.60;;
14381;SDS011;7275;50.328;8.720;2023-03-01T02:03:08;9.70;;;6.87;;
14381;SDS011;7275;50.328;8.720;2023-03-01T02:05:40;9.93;;;7.17;;
14381;SDS011;7275;50.328;8.720;2023-03-01T02:08:21;9.70;;;6.67;;
14381;SDS011;7275;50.328;8.720;2023-03-01T02:10:52;9.10;;;6.83;;
14381;SDS011;7275;50.328;8.720;2023-03-01T02:13:23;8.87;;;7.00;;
14381;SDS011;7275;50.328;8.720;2023-03-01T02:15:50;8.60;;;6.90;;
14381;SDS011;7275;50.328;8.720;2023-03-01T02:18:20;9.97;;;6.50;;
14381;SDS011;7275;50.328;8.720;2023-03-01T02:20:53;8.50;;;6.70;;
14381;SDS011;7275;50.328;8.720;2023-03-01T02:23:32;8.50;;;6.43;;
14381;SDS011;7275;50.328;8.720;2023-03-01T02:26:02;10.70;;;7.23;;
14381;SDS011;7275;50.328;8.720;2023-03-01T02:28:38;9.50;;;7.13;;
14381;SDS011;7275;50.328;8.720;2023-03-01T02:31:10;8.20;;;6.57;;
14381;SDS011;7275;50.328;8.720;2023-03-01T02:33:59;9.47;;;6.97;;
14381;SDS011;7275;50.328;8.720;2023-03-01T02:36:28;9.90;;;6.47;;
14381;SDS011;7275;50.328;8.720;2023-03-01T02:39:01;9.07;;;7.40;;
14381;SDS011;7275;50.328;8.720;2023-03-01T02:41:33;11.80;;;7.50;;
14381;SDS011;7275;50.328;8.720;2023-03-01T02:44:05;9.80;;;7.47;;
14381;SDS011;7275;50.328;8.720;2023-03-01T02:46:41;10.07;;;7.07;;
14381;SDS011;7275;50.328;8.720;2023-03-01T02:49:18;9.27;;;7.13;;
14381;SDS011;7275;50.328;8.720;2023-03-01T02:51:50;7.47;;;6.30;;
14381;SDS011;7275;50.328;8.720;2023-03-01T02:54:29;10.97;;;7.47;;
14381;SDS011;7275;50.328;8.720;2023-03-01T02:57:00;9.20;;;7.20;;
14381;SDS011;7275;50.328;8.720;2023-03-01T02:59:30;9.60;;;7.30;;
14381;SDS011;7275;50.328;8.720;2023-03-01T03:02:05;10.50;;;7.17;;
14381;SDS011;7275;50.328;8.720;2023-03-01T03:04:33;9.93;;;7.47;;
14381;SDS011;7275;50.328;8.720;2023-03-01T03:07:00;10.57;;;7.40;;
14381;SDS011;7275;50.328;8.720;2023-03-01T03:09:28;9.20;;;7.67;;
14381;SDS011;7275;50.328;8.720;2023-03-01T03:11:56;10.40;;;7.53;;
14381;SDS011;7275;50.328;8.720;2023-03-01T03:14:23;9.83;;;7.60;;
14381;SDS011;7275;50.328;8.720;2023-03-01T03:16:52;8.90;;;6.50;;
14381;SDS011;7275;50.328;8.720;2023-03-01T03:19:20;10.03;;;7.40;;
14381;SDS011;7275;50.328;8.720;2023-03-01T03:21:47;10.90;;;7.60;;
14381;SDS011;7275;50.328;8.720;2023-03-01T03:24:15;11.03;;;7.60;;
14381;SDS011;7275;50.328;8.720;2023-03-01T03:26:43;9.37;;;7.33;;
14381;SDS011;7275;50.328;8.720;2023-03-01T03:29:11;9.90;;;7.73;;
14381;SDS011;7275;50.328;8.720;2023-03-01T03:31:38;9.03;;;7.30;;
14381;SDS011;7275;50.328;8.720;2023-03-01T03:34:07;10.17;;;8.27;;
14381;SDS011;7275;50.328;8.720;2023-03-01T03:36:43;9.77;;;7.50;;
14381;SDS011;7275;50.328;8.720;2023-03-01T03:39:11;10.80;;;8.20;;
14381;SDS011;7275;50.328;8.720;2023-03-01T03:41:38;9.53;;;7.27;;
14381;SDS011;7275;50.328;8.720;2023-03-01T03:44:06;9.33;;;7.50;;
14381;SDS011;7275;50.328;8.720;2023-03-01T03:46:33;11.27;;;7.77;;
14381;SDS011;7275;50.328;8.720;2023-03-01T03:49:01;8.50;;;6.90;;
14381;SDS011;7275;50.328;8.720;2023-03-01T03:51:30;9.60;;;7.93;;
14381;SDS011;7275;50.328;8.720;2023-03-01T03:53:58;8.87;;;7.33;;
14381;SDS011;7275;50.328;8.720;2023-03-01T03:56:25;9.07;;;7.57;;
14381;SDS011;7275;50.328;8.720;2023-03-01T03:58:54;10.93;;;7.57;;
14381;SDS011;7275;50.328;8.720;2023-03-01T04:01:21;9.77;;;7.80;;
14381;SDS011;7275;50.328;8.720;2023-03-01T04:03:49;10.73;;;7.63;;
14381;SDS011;7275;50.328;8.720;2023-03-01T04:06:20;10.20;;;7.63;;
14381;SDS011;7275;50.328;8.720;2023-03-01T04:08:49;9.53;;;6.83;;
14381;SDS011;7275;50.328;8.720;2023-03-01T04:11:17;12.07;;;8.00;;
14381;SDS011;7275;50.328;8.720;2023-03-01T04:13:54;10.77;;;8.30;;
14381;SDS011;7275;50.328;8.720;2023-03-01T04:16:23;10.10;;;7.90;;
14381;SDS011;7275;50.328;8.720;2023-03-01T04:18:51;11.50;;;7.80;;
14381;SDS011;7275;50.328;8.720;2023-03-01T04:21:19;10.53;;;7.97;;
14381;SDS011;7275;50.328;8.720;2023-03-01T04:23:47;11.00;;;8.20;;
14381;SDS011;7275;50.328;8.720;2023-03-01T04:26:18;10.67;;;7.97;;
14381;SDS011;7275;50.328;8.720;2023-03-01T04:28:46;10.80;;;7.97;;
14381;SDS011;7275;50.328;8.720;2023-03-01T04:31:17;11.00;;;8.07;;
14381;SDS011;7275;50.328;8.720;2023-03-01T04:33:48;10.93;;;8.17;;
14381;SDS011;7275;50.328;8.720;2023-03-01T04:36:19;9.73;;;7.40;;
14381;SDS011;7275;50.328;8.720;2023-03-01T04:38:49;10.90;;;8.07;;
14381;SDS011;7275;50.328;8.720;2023-03-01T04:41:18;12.03;;;7.97;;
14381;SDS011;7275;50.328;8.720;2023-03-01T04:43:47;9.63;;;7.80;;
14381;SDS011;7275;50.328;8.720;2023-03-01T04:46:16;10.63;;;8.23;;
14381;SDS011;7275;50.328;8.720;2023-03-01T04:48:44;10.73;;;8.03;;
14381;SDS011;7275;50.328;8.720;2023-03-01T04:51:13;9.63;;;7.87;;
14381;SDS011;7275;50.328;8.720;2023-03-01T04:53:42;10.20;;;8.17;;
14381;SDS011;7275;50.328;8.720;2023-03-01T04:56:12;11.97;;;8.37;;
14381;SDS011;7275;50.328;8.720;2023-03-01T04:58:40;11.17;;;7.67;;
14381;SDS011;7275;50.328;8.720;2023-03-01T05:01:09;9.93;;;8.30;;
14381;SDS011;7275;50.328;8.720;2023-03-01T05:03:41;10.07;;;7.83;;
14381;SDS011;7275;50.328;8.720;2023-03-01T05:06:10;11.17;;;8.13;;
14381;SDS011;7275;50.328;8.720;2023-03-01T05:08:38;10.50;;;7.97;;
14381;SDS011;7275;50.328;8.720;2023-03-01T05:11:06;11.97;;;8.27;;
14381;SDS011;7275;50.328;8.720;2023-03-01T05:13:37;11.47;;;8.27;;
14381;SDS011;7275;50.328;8.720;2023-03-01T05:16:06;9.97;;;7.90;;
14381;SDS011;7275;50.328;8.720;2023-03-01T05:18:37;10.23;;;7.87;;
14381;SDS011;7275;50.328;8.720;2023-03-01T05:21:06;11.80;;;7.93;;
14381;SDS011;7275;50.328;8.720;2023-03-01T05:23:35;11.67;;;7.97;;
14381;SDS011;7275;50.328;8.720;2023-03-01T05:26:03;10.13;;;7.53;;
14381;SDS011;7275;50.328;8.720;2023-03-01T05:28:37;10.70;;;8.20;;
14381;SDS011;7275;50.328;8.720;2023-03-01T05:31:06;11.93;;;8.07;;
14381;SDS011;7275;50.328;8.720;2023-03-01T05:33:36;10.43;;;7.60;;
14381;SDS011;7275;50.328;8.720;2023-03-01T05:36:04;11.27;;;8.27;;
14381;SDS011;7275;50.328;8.720;2023-03-01T05:38:33;9.43;;;7.67;;
14381;SDS011;7275;50.328;8.720;2023-03-01T05:41:01;11.67;;;8.27;;
14381;SDS011;7275;50.328;8.720;2023-03-01T05:43:30;12.60;;;8.60;;
14381;SDS011;7275;50.328;8.720;2023-03-01T05:46:01;10.83;;;8.57;;
14381;SDS011;7275;50.328;8.720;2023-03-01T05:48:29;11.50;;;8.20;;
14381;SDS011;7275;50.328;8.720;2023-03-01T05:50:58;11.77;;;8.17;;
14381;SDS011;7275;50.328;8.720;2023-03-01T05:53:27;9.73;;;7.63;;
14381;SDS011;7275;50.328;8.720;2023-03-01T05:55:54;12.80;;;8.13;;
14381;SDS011;7275;50.328;8.720;2023-03-01T05:58:22;9.57;;;7.73;;
14381;SDS011;7275;50.328;8.720;2023-03-01T06:00:50;11.13;;;8.43;;
14381;SDS011;7275;50.328;8.720;2023-03-01T06:03:21;10.23;;;7.80;;
14381;SDS011;7275;50.328;8.720;2023-03-01T06:05:49;10.30;;;8.07;;
14381;SDS011;7275;50.328;8.720;2023-03-01T06:08:16;10.83;;;8.23;;
14381;SDS011;7275;50.328;8.720;2023-03-01T06:10:46;9.73;;;7.83;;
14381;SDS011;7275;50.328;8.720;2023-03-01T06:13:14;11.97;;;8.03;;
14381;SDS011;7275;50.328;8.720;2023-03-01T06:15:41;9.70;;;7.77;;
14381;SDS011;7275;50.328;8.720;2023-03-01T06:18:09;12.77;;;9.00;;
14381;SDS011;7275;50.328;8.720;2023-03-01T06:20:38;13.17;;;8.63;;
14381;SDS011;7275;50.328;8.720;2023-03-01T06:23:05;11.67;;;7.50;;
14381;SDS011;7275;50.328;8.720;2023-03-01T06:25:35;11.87;;;8.37;;
14381;SDS011;7275;50.328;8.720;2023-03-01T06:28:02;10.57;;;8.50;;
14381;SDS011;7275;50.328;8.720;2023-03-01T06:30:30;11.47;;;8.13;;
14381;SDS011;7275;50.328;8.720;2023-03-01T06:32:58;12.50;;;8.20;;
14381;SDS011;7275;50.328;8.720;2023-03-01T06:35:27;11.53;;;8.60;;
14381;SDS011;7275;50.328;8.720;2023-03-01T06:37:58;12.07;;;8.73;;
14381;SDS011;7275;50.328;8.720;2023-03-01T06:40:27;14.87;;;9.70;;
14381;SDS011;7275;50.328;8.720;2023-03-01T06:42:55;12.87;;;9.00;;
14381;SDS011;7275;50.328;8.720;2023-03-01T06:45:23;12.63;;;9.50;;
14381;SDS011;7275;50.328;8.720;2023-03-01T06:47:51;12.13;;;8.70;;
14381;SDS011;7275;50.328;8.720;2023-03-01T06:50:19;10.80;;;7.80;;
14381;SDS011;7275;50.328;8.720;2023-03-01T06:52:46;14.37;;;9.20;;
14381;SDS011;7275;50.328;8.720;2023-03-01T06:55:15;12.60;;;9.00;;
14381;SDS011;7275;50.328;8.720;2023-03-01T06:57:43;12.43;;;9.03;;
14381;SDS011;7275;50.328;8.720;2023-03-01T07:00:11;12.87;;;9.47;;
14381;SDS011;7275;50.328;8.720;2023-03-01T07:02:40;13.67;;;9.50;;
14381;SDS011;7275;50.328;8.720;2023-03-01T07:05:07;14.83;;;10.07;;
14381;SDS011;7275;50.328;8.720;2023-03-01T07:07:35;18.23;;;12.10;;
14381;SDS011;7275;50.328;8.720;2023-03-01T07:10:03;14.33;;;10.27;;
14381;SDS011;7275;50.328;8.720;2023-03-01T07:12:32;12.47;;;8.80;;
14381;SDS011;7275;50.328;8.720;2023-03-01T07:15:00;11.60;;;9.20;;
14381;SDS011;7275;50.328;8.720;2023-03-01T07:17:28;11.30;;;9.13;;
14381;SDS011;7275;50.328;8.720;2023-03-01T07:19:55;10.13;;;8.43;;
14381;SDS011;7275;50.328;8.720;2023-03-01T07:22:23;11.97;;;8.87;;
14381;SDS011;7275;50.328;8.720;2023-03-01T07:24:50;12.80;;;9.30;;
14381;SDS011;7275;50.328;8.720;2023-03-01T07:27:18;12.67;;;9.70;;
14381;SDS011;7275;50.328;8.720;2023-03-01T07:29:47;12.97;;;9.00;;
14381;SDS011;7275;50.328;8.720;2023-03-01T07:32:14;13.20;;;9.37;;
14381;SDS011;7275;50.328;8.720;2023-03-01T07:34:42;10.83;;;8.90;;
14381;SDS011;7275;50.328;8.720;2023-03-01T07:37:10;11.67;;;8.73;;
14381;SDS011;7275;50.328;8.720;2023-03-01T07:39:37;13.03;;;9.60;;
14381;SDS011;7275;50.328;8.720;2023-03-01T07:42:05;12.57;;;9.17;;
14381;SDS011;7275;50.328;8.720;2023-03-01T07:44:32;11.63;;;8.87;;
14381;SDS011;7275;50.328;8.720;2023-03-01T07:47:02;10.53;;;8.37;;
14381;SDS011;7275;50.328;8.720;2023-03-01T07:49:30;12.63;;;8.77;;
14381;SDS011;7275;50.328;8.720;2023-03-01T07:51:58;13.40;;;9.30;;
14381;SDS011;7275;50.328;8.720;2023-03-01T07:54:25;12.47;;;9.17;;
14381;SDS011;7275;50.328;8.720;2023-03-01T07:56:53;11.33;;;8.53;;
14381;SDS011;7275;50.328;8.720;2023-03-01T07:59:21;10.83;;;8.90;;
14381;SDS011;7275;50.328;8.720;2023-03-01T08:01:49;12.23;;;9.10;;
14381;SDS011;7275;50.328;8.720;2023-03-01T08:04:18;12.03;;;9.53;;
14381;SDS011;7275;50.328;8.720;2023-03-01T08:06:46;13.63;;;9.33;;
14381;SDS011;7275;50.328;8.720;2023-03-01T08:09:13;11.67;;;8.47;;
14381;SDS011;7275;50.328;8.720;2023-03-01T08:11:41;11.13;;;9.07;;
14381;SDS011;7275;50.328;8.720;2023-03-01T08:14:09;11.13;;;8.80;;
14381;SDS011;7275;50.328;8.720;2023-03-01T08:16:36;9.90;;;8.37;;
14381;SDS011;7275;50.328;8.720;2023-03-01T08:19:04;9.33;;;8.07;;
14381;SDS011;7275;50.328;8.720;2023-03-01T08:21:34;12.50;;;8.83;;
14381;SDS011;7275;50.328;8.720;2023-03-01T08:24:02;10.73;;;8.40;;
14381;SDS011;7275;50.328;8.720;2023-03-01T08:26:31;10.27;;;8.50;;
14381;SDS011;7275;50.328;8.720;2023-03-01T08:28:59;10.87;;;8.80;;
14381;SDS011;7275;50.328;8.720;2023-03-01T08:31:28;9.10;;;7.90;;
14381;SDS011;7275;50.328;8.720;2023-03-01T08:33:59;9.70;;;7.93;;
14381;SDS011;7275;50.328;8.720;2023-03-01T08:36:28;9.83;;;7.77;;
14381;SDS011;7275;50.328;8.720;2023-03-01T08:38:58;9.77;;;8.13;;
14381;SDS011;7275;50.328;8.720;2023-03-01T08:41:26;10.20;;;7.23;;
14381;SDS011;7275;50.328;8.720;2023-03-01T08:43:54;9.27;;;7.57;;
14381;SDS011;7275;50.328;8.720;2023-03-01T08:46:25;8.80;;;7.40;;
14381;SDS011;7275;50.328;8.720;2023-03-01T08:48:53;9.37;;;8.33;;
14381;SDS011;7275;50.328;8.720;2023-03-01T08:51:21;9.70;;;7.77;;
14381;SDS011;7275;50.328;8.720;2023-03-01T08:53:50;11.20;;;8.10;;
14381;SDS011;7275;50.328;8.720;2023-03-01T08:56:19;10.60;;;8.67;;
14381;SDS011;7275;50.328;8.720;2023-03-01T08:58:47;10.00;;;8.00;;
14381;SDS011;7275;50.328;8.720;2023-03-01T09:01:16;9.47;;;7.97;;
14381;SDS011;7275;50.328;8.720;2023-03-01T09:03:45;9.40;;;8.37;;
14381;SDS011;7275;50.328;8.720;2023-03-01T09:06:13;10.00;;;8.50;;
14381;SDS011;7275;50.328;8.720;2023-03-01T09:08:43;9.20;;;8.20;;
14381;SDS011;7275;50.328;8.720;2023-03-01T09:11:14;10.13;;;7.87;;
14381;SDS011;7275;50.328;8.720;2023-03-01T09:13:46;9.87;;;7.97;;
14381;SDS011;7275;50.328;8.720;2023-03-01T09:16:15;9.30;;;8.20;;
14381;SDS011;7275;50.328;8.720;2023-03-01T09:18:48;8.77;;;7.83;;
14381;SDS011;7275;50.328;8.720;2023-03-01T09:21:18;9.10;;;7.50;;
14381;SDS011;7275;50.328;8.720;2023-03-01T09:24:04;9.37;;;7.07;;
14381;SDS011;7275;50.328;8.720;2023-03-01T09:26:33;8.87;;;7.77;;
14381;SDS011;7275;50.328;8.720;2023-03-01T09:29:02;7.67;;;6.87;;
14381;SDS011;7275;50.328;8.720;2023-03-01T09:31:30;8.80;;;7.13;;
14381;SDS011;7275;50.328;8.720;2023-03-01T09:33:57;8.00;;;7.20;;
14381;SDS011;7275;50.328;8.720;2023-03-01T09:36:25;7.60;;;6.87;;
14381;SDS011;7275;50.328;8.720;2023-03-01T09:38:52;7.90;;;7.17;;
14381;SDS011;7275;50.328;8.720;2023-03-01T09:41:34;7.17;;;6.47;;
14381;SDS011;7275;50.328;8.720;2023-03-01T09:44:16;7.13;;;6.43;;
14381;SDS011;7275;50.328;8.720;2023-03-01T09:46:51;7.00;;;6.30;;
14381;SDS011;7275;50.328;8.720;2023-03-01T09:49:19;7.67;;;6.93;;
14381;SDS011;7275;50.328;8.720;2023-03-01T09:51:54;7.03;;;6.13;;
14381;SDS011;7275;50.328;8.720;2023-03-01T09:54:24;6.88;;;6.05;;
14381;SDS011;7275;50.328;8.720;2023-03-01T09:56:56;7.82;;;7.13;;
14381;SDS011;7275;50.328;8.720;2023-03-01T09:59:36;7.57;;;6.88;;
14381;SDS011;7275;50.328;8.720;2023-03-01T10:02:23;8.10;;;6.78;;
14381;SDS011;7275;50.328;8.720;2023-03-01T10:04:57;6.97;;;6.28;;
14381;SDS011;7275;50.328;8.720;2023-03-01T10:07:41;6.93;;;6.20;;
14381;SDS011;7275;50.328;8.720;2023-03-01T10:10:16;7.00;;;6.30;;
14381;SDS011;7275;50.328;8.720;2023-03-01T10:12:53;6.70;;;6.07;;
14381;SDS011;7275;50.328;8.720;2023-03-01T10:15:28;7.50;;;6.80;;
14381;SDS011;7275;50.328;8.720;2023-03-01T10:18:02;6.95;;;6.35;;
14381;SDS011;7275;50.328;8.720;2023-03-01T10:20:40;7.00;;;6.32;;
14381;SDS011;7275;50.328;8.720;2023-03-01T10:23:13;7.10;;;6.40;;
14381;SDS011;7275;50.328;8.720;2023-03-01T10:25:44;6.80;;;6.18;;
14381;SDS011;7275;50.328;8.720;2023-03-01T10:28:24;6.57;;;5.97;;
14381;SDS011;7275;50.328;8.720;2023-03-01T10:30:58;6.82;;;6.13;;
14381;SDS011;7275;50.328;8.720;2023-03-01T10:33:27;6.75;;;6.05;;
14381;SDS011;7275;50.328;8.720;2023-03-01T10:35:58;6.22;;;5.65;;
14381;SDS011;7275;50.328;8.720;2023-03-01T10:38:26;6.57;;;5.97;;
14381;SDS011;7275;50.328;8.720;2023-03-01T10:40:58;6.40;;;5.80;;
14381;SDS011;7275;50.328;8.720;2023-03-01T10:43:29;5.93;;;5.43;;
14381;SDS011;7275;50.328;8.720;2023-03-01T10:46:18;6.82;;;6.22;;
14381;SDS011;7275;50.328;8.720;2023-03-01T10:49:02;6.82;;;6.03;;
14381;SDS011;7275;50.328;8.720;2023-03-01T10:51:33;6.65;;;5.95;;
14381;SDS011;7275;50.328;8.720;2023-03-01T10:54:01;6.35;;;5.82;;
14381;SDS011;7275;50.328;8.720;2023-03-01T10:56:29;7.47;;;6.05;;
14381;SDS011;7275;50.328;8.720;2023-03-01T10:59:19;7.55;;;6.85;;
14381;SDS011;7275;50.328;8.720;2023-03-01T11:02:03;6.85;;;6.25;;
14381;SDS011;7275;50.328;8.720;2023-03-01T11:04:57;6.43;;;5.82;;
14381;SDS011;7275;50.328;8.720;2023-03-01T11:07:26;6.55;;;5.95;;
14381;SDS011;7275;50.328;8.720;2023-03-01T11:09:54;6.55;;;5.93;;
14381;SDS011;7275;50.328;8.720;2023-03-01T11:12:23;6.63;;;6.03;;
14381;SDS011;7275;50.328;8.720;2023-03-01T11:14:52;6.43;;;5.82;;
14381;SDS011;7275;50.328;8.720;2023-03-01T11:17:23;6.00;;;5.40;;
14381;SDS011;7275;50.328;8.720;2023-03-01T11:20:00;6.13;;;5.53;;
14381;SDS011;7275;50.328;8.720;2023-03-01T11:22:32;5.88;;;5.38;;
14381;SDS011;7275;50.328;8.720;2023-03-01T11:25:03;6.03;;;5.53;;
14381;SDS011;7275;50.328;8.720;2023-03-01T11:27:36;6.10;;;5.57;;
14381;SDS011;7275;50.328;8.720;2023-03-01T11:30:12;6.25;;;5.60;;
14381;SDS011;7275;50.328;8.720;2023-03-01T11:32:47;6.80;;;5.78;;
14381;SDS011;7275;50.328;8.720;2023-03-01T11:35:21;6.55;;;5.75;;
14381;SDS011;7275;50.328;8.720;2023-03-01T11:37:55;6.30;;;5.75;;
14381;SDS011;7275;50.328;8.720;2023-03-01T11:40:31;6.18;;;5.57;;
14381;SDS011;7275;50.328;8.720;2023-03-01T11:43:04;5.95;;;5.40;;
14381;SDS011;7275;50.328;8.720;2023-03-01T11:45:43;6.22;;;5.63;;
14381;SDS011;7275;50.328;8.720;2023-03-01T11:48:27;5.90;;;5.40;;
14381;SDS011;7275;50.328;8.720;2023-03-01T11:51:17;5.88;;;5.38;;
14381;SDS011;7275;50.328;8.720;2023-03-01T11:53:54;5.82;;;5.32;;
14381;SDS011;7275;50.328;8.720;2023-03-01T11:56:34;6.22;;;5.63;;
14381;SDS011;7275;50.328;8.720;2023-03-01T11:59:16;5.72;;;5.10;;
14381;SDS011;7275;50.328;8.720;2023-03-01T12:02:00;5.90;;;5.35;;
14381;SDS011;7275;50.328;8.720;2023-03-01T12:07:43;5.53;;;5.03;;
14381;SDS011;7275;50.328;8.720;2023-03-01T12:10:23;5.78;;;5.28;;
14381;SDS011;7275;50.328;8.720;2023-03-01T12:13:10;6.25;;;5.65;;
14381;SDS011;7275;50.328;8.720;2023-03-01T12:15:54;5.95;;;5.32;;
14381;SDS011;7275;50.328;8.720;2023-03-01T12:18:40;5.47;;;4.95;;
14381;SDS011;7275;50.328;8.720;2023-03-01T12:21:30;6.15;;;5.55;;
14381;SDS011;7275;50.328;8.720;2023-03-01T12:24:12;5.65;;;5.07;;
14381;SDS011;7275;50.328;8.720;2023-03-01T12:26:56;5.43;;;5.03;;
14381;SDS011;7275;50.328;8.720;2023-03-01T12:29:46;5.15;;;4.65;;
14381;SDS011;7275;50.328;8.720;2023-03-01T12:32:26;5.47;;;4.97;;
14381;SDS011;7275;50.328;8.720;2023-03-01T12:35:09;5.45;;;4.63;;
14381;SDS011;7275;50.328;8.720;2023-03-01T12:37:52;5.60;;;5.10;;
14381;SDS011;7275;50.328;8.720;2023-03-01T12:40:33;5.38;;;4.88;;
14381;SDS011;7275;50.328;8.720;2023-03-01T12:43:17;5.40;;;4.90;;
14381;SDS011;7275;50.328;8.720;2023-03-01T12:45:57;5.20;;;4.70;;
14381;SDS011;7275;50.328;8.720;2023-03-01T12:48:40;5.97;;;5.38;;
14381;SDS011;7275;50.328;8.720;2023-03-01T12:51:18;5.93;;;5.32;;
14381;SDS011;7275;50.328;8.720;2023-03-01T12:53:51;4.93;;;4.53;;
14381;SDS011;7275;50.328;8.720;2023-03-01T12:56:23;5.38;;;4.88;;
14381;SDS011;7275;50.328;8.720;2023-03-01T12:58:55;5.50;;;5.00;;
14381;SDS011;7275;50.328;8.720;2023-03-01T13:01:38;5.53;;;4.90;;
14381;SDS011;7275;50.328;8.720;2023-03-01T13:04:14;6.15;;;5.55;;
14381;SDS011;7275;50.328;8.720;2023-03-01T13:06:55;5.45;;;4.93;;
14381;SDS011;7275;50.328;8.720;2023-03-01T13:09:33;5.43;;;4.93;;
14381;SDS011;7275;50.328;8.720;2023-03-01T13:12:03;6.22;;;5.63;;
14381;SDS011;7275;50.328;8.720;2023-03-01T13:14:44;6.00;;;5.38;;
14381;SDS011;7275;50.328;8.720;2023-03-01T13:19:57;5.82;;;5.22;;
14381;SDS011;7275;50.328;8.720;2023-03-01T13:22:27;5.47;;;4.97;;
14381;SDS011;7275;50.328;8.720;2023-03-01T13:25:03;5.22;;;4.72;;
14381;SDS011;7275;50.328;8.720;2023-03-01T13:27:40;5.28;;;4.78;;
14381;SDS011;7275;50.328;8.720;2023-03-01T13:39:27;5.65;;;5.13;;
14381;SDS011;7275;50.328;8.720;2023-03-01T13:41:59;5.45;;;4.95;;
14381;SDS011;7275;50.328;8.720;2023-03-01T13:44:29;5.32;;;4.90;;
14381;SDS011;7275;50.328;8.720;2023-03-01T13:47:02;5.47;;;4.97;;
14381;SDS011;7275;50.328;8.720;2023-03-01T13:49:45;5.47;;;4.97;;
14381;SDS011;7275;50.328;8.720;2023-03-01T13:52:27;5.43;;;4.82;;
14381;SDS011;7275;50.328;8.720;2023-03-01T13:55:03;5.28;;;4.80;;
14381;SDS011;7275;50.328;8.720;2023-03-01T13:57:34;5.43;;;4.93;;
14381;SDS011;7275;50.328;8.720;2023-03-01T14:00:06;6.00;;;5.40;;
14381;SDS011;7275;50.328;8.720;2023-03-01T14:02:59;5.43;;;4.93;;
14381;SDS011;7275;50.328;8.720;2023-03-01T14:05:31;5.97;;;5.30;;
14381;SDS011;7275;50.328;8.720;2023-03-01T14:07:59;6.10;;;5.50;;
14381;SDS011;7275;50.328;8.720;2023-03-01T14:10:28;6.28;;;5.68;;
14381;SDS011;7275;50.328;8.720;2023-03-01T14:13:08;6.40;;;5.68;;
14381;SDS011;7275;50.328;8.720;2023-03-01T14:15:54;6.00;;;5.40;;
14381;SDS011;7275;50.328;8.720;2023-03-01T14:18:34;5.63;;;5.13;;
14381;SDS011;7275;50.328;8.720;2023-03-01T14:21:07;5.57;;;5.07;;
14381;SDS011;7275;50.328;8.720;2023-03-01T14:23:37;5.55;;;5.05;;
14381;SDS011;7275;50.328;8.720;2023-03-01T14:26:08;5.70;;;5.07;;
14381;SDS011;7275;50.328;8.720;2023-03-01T14:28:39;6.03;;;5.03;;
14381;SDS011;7275;50.328;8.720;2023-03-01T14:34:16;5.55;;;4.85;;
14381;SDS011;7275;50.328;8.720;2023-03-01T14:36:46;5.47;;;4.95;;
14381;SDS011;7275;50.328;8.720;2023-03-01T14:39:17;4.93;;;4.47;;
14381;SDS011;7275;50.328;8.720;2023-03-01T14:41:47;4.93;;;4.45;;
14381;SDS011;7275;50.328;8.720;2023-03-01T14:44:18;5.65;;;5.05;;
14381;SDS011;7275;50.328;8.720;2023-03-01T14:46:54;5.63;;;5.03;;
14381;SDS011;7275;50.328;8.720;2023-03-01T14:49:24;5.50;;;5.00;;
14381;SDS011;7275;50.328;8.720;2023-03-01T14:51:54;5.10;;;4.60;;
14381;SDS011;7275;50.328;8.720;2023-03-01T14:54:27;6.00;;;4.82;;
14381;SDS011;7275;50.328;8.720;2023-03-01T14:56:58;5.32;;;4.82;;
14381;SDS011;7275;50.328;8.720;2023-03-01T14:59:28;5.00;;;4.50;;
14381;SDS011;7275;50.328;8.720;2023-03-01T15:01:56;4.97;;;4.57;;
14381;SDS011;7275;50.328;8.720;2023-03-01T15:04:25;5.80;;;5.22;;
14381;SDS011;7275;50.328;8.720;2023-03-01T15:06:55;4.70;;;4.30;;
14381;SDS011;7275;50.328;8.720;2023-03-01T15:09:31;5.05;;;4.55;;
14381;SDS011;7275;50.328;8.720;2023-03-01T15:15:18;5.90;;;5.30;;
14381;SDS011;7275;50.328;8.720;2023-03-01T15:17:49;5.60;;;4.97;;
14381;SDS011;7275;50.328;8.720;2023-03-01T15:20:22;5.60;;;5.10;;
14381;SDS011;7275;50.328;8.720;2023-03-01T15:22:53;5.90;;;5.30;;
14381;SDS011;7275;50.328;8.720;2023-03-01T15:25:23;5.70;;;4.93;;
14381;SDS011;7275;50.328;8.720;2023-03-01T15:27:53;6.55;;;5.13;;
14381;SDS011;7275;50.328;8.720;2023-03-01T15:30:24;5.32;;;4.82;;
14381;SDS011;7275;50.328;8.720;2023-03-01T15:33:16;5.88;;;5.28;;
14381;SDS011;7275;50.328;8.720;2023-03-01T15:35:47;5.78;;;4.88;;
14381;SDS011;7275;50.328;8.720;2023-03-01T15:38:26;5.20;;;4.70;;
14381;SDS011;7275;50.328;8.720;2023-03-01T15:40:56;5.93;;;5.32;;
14381;SDS011;7275;50.328;8.720;2023-03-01T15:43:38;5.85;;;5.25;;
14381;SDS011;7275;50.328;8.720;2023-03-01T15:46:19;5.63;;;5.13;;